createdAt,value
2018-02-18T00:00:26.617Z,85.70
2018-02-18T00:03:30.067Z,85.20
2018-02-18T00:06:33.375Z,84.20
2018-02-18T00:09:37.955Z,84.40
2018-02-18T00:12:41.981Z,85.90
2018-02-18T00:15:45.253Z,85.90
2018-02-18T00:18:48.595Z,84.40
2018-02-18T00:21:51.912Z,84.10
2018-02-18T00:24:55.192Z,85.90
2018-02-18T00:27:58.490Z,84.80
2018-02-18T00:31:02.651Z,85.10
2018-02-18T00:34:05.922Z,85.80
2018-02-18T00:37:09.201Z,85.20
2018-02-18T00:40:12.549Z,85.50
2018-02-18T00:43:15.828Z,85.40
2018-02-18T00:46:19.100Z,85.00
2018-02-18T00:49:22.417Z,85.50
2018-02-18T00:52:25.696Z,86.20
2018-02-18T00:55:29.064Z,86.10
2018-02-18T00:58:33.110Z,85.40
2018-02-18T01:01:36.451Z,85.40
2018-02-18T01:04:40.572Z,86.00
2018-02-18T01:07:43.948Z,86.30
2018-02-18T01:10:47.591Z,86.20
2018-02-18T01:13:51.597Z,85.50
2018-02-18T01:16:54.912Z,85.40
2018-02-18T01:19:58.188Z,84.90
2018-02-18T01:23:01.627Z,84.90
2018-02-18T01:26:04.890Z,85.70
2018-02-18T01:29:08.966Z,86.30
2018-02-18T01:32:12.233Z,86.20
2018-02-18T01:35:15.538Z,85.90
2018-02-18T01:38:19.256Z,86.30
2018-02-18T01:41:22.642Z,87.40
2018-02-18T01:44:25.945Z,86.60
2018-02-18T01:47:29.236Z,87.00
2018-02-18T01:50:37.703Z,86.60
2018-02-18T01:53:40.984Z,86.80
2018-02-18T01:56:44.252Z,87.00
2018-02-18T01:59:47.567Z,87.00
2018-02-18T02:02:50.957Z,86.80
2018-02-18T02:05:54.593Z,87.00
2018-02-18T02:08:57.852Z,86.80
2018-02-18T02:12:01.163Z,87.10
2018-02-18T02:15:04.833Z,87.10
2018-02-18T02:18:08.128Z,87.60
2018-02-18T02:21:11.526Z,87.70
2018-02-18T02:24:15.830Z,87.80
2018-02-18T02:27:19.508Z,87.80
2018-02-18T02:30:22.779Z,87.70
2018-02-18T02:33:26.140Z,87.80
2018-02-18T02:36:29.463Z,87.60
2018-02-18T02:39:32.762Z,87.20
2018-02-18T02:42:36.014Z,87.20
2018-02-18T02:45:40.147Z,88.00
2018-02-18T02:48:43.479Z,87.80
2018-02-18T02:51:46.824Z,87.90
2018-02-18T02:54:50.395Z,86.50
2018-02-18T02:57:53.677Z,87.60
2018-02-18T03:00:57.116Z,86.50
2018-02-18T03:04:00.389Z,86.80
2018-02-18T03:07:04.505Z,86.90
2018-02-18T03:10:07.888Z,86.70
2018-02-18T03:13:11.282Z,87.30
2018-02-18T03:16:14.538Z,86.80
2018-02-18T03:19:17.846Z,86.10
2018-02-18T03:22:21.180Z,85.80
2018-02-18T03:25:24.490Z,86.20
2018-02-18T03:28:27.768Z,86.50
2018-02-18T03:31:31.228Z,86.70
2018-02-18T03:34:35.251Z,85.50
2018-02-18T03:37:38.850Z,85.50
2018-02-18T03:40:42.259Z,85.80
2018-02-18T03:43:45.569Z,86.30
2018-02-18T03:46:48.887Z,85.20
2018-02-18T03:49:52.159Z,86.10
2018-02-18T03:52:55.434Z,85.80
2018-02-18T03:55:58.742Z,86.50
2018-02-18T03:59:02.024Z,85.90
2018-02-18T04:02:05.295Z,85.10
2018-02-18T04:05:08.649Z,85.90
2018-02-18T04:08:11.994Z,85.20
2018-02-18T04:11:15.329Z,86.10
2018-02-18T04:14:18.604Z,86.20
2018-02-18T04:17:22.663Z,86.50
2018-02-18T04:20:26.332Z,86.40
2018-02-18T04:23:29.626Z,86.80
2018-02-18T04:26:33.696Z,86.60
2018-02-18T04:29:37.172Z,86.60
2018-02-18T04:32:40.485Z,87.30
2018-02-18T04:35:43.758Z,86.90
2018-02-18T04:38:47.070Z,87.10
2018-02-18T04:41:50.378Z,86.70
2018-02-18T04:44:53.861Z,87.20
2018-02-18T04:47:58.480Z,87.60
2018-02-18T04:51:02.005Z,87.00
2018-02-18T04:54:05.463Z,87.10
2018-02-18T04:57:12.563Z,87.30
2018-02-18T05:00:16.010Z,87.50
2018-02-18T05:03:20.316Z,86.90
2018-02-18T05:06:24.507Z,87.30
2018-02-18T05:09:28.000Z,87.20
2018-02-18T05:12:31.986Z,87.10
2018-02-18T05:15:36.225Z,86.50
2018-02-18T05:18:40.580Z,87.60
2018-02-18T05:21:44.288Z,86.80
2018-02-18T05:24:47.646Z,86.50
2018-02-18T05:27:51.080Z,86.50
2018-02-18T05:30:54.513Z,87.10
2018-02-18T05:33:57.901Z,87.30
2018-02-18T05:37:02.042Z,86.50
2018-02-18T05:40:06.354Z,86.40
2018-02-18T05:43:10.204Z,86.60
2018-02-18T05:46:13.663Z,86.40
2018-02-18T05:49:17.043Z,86.00
2018-02-18T05:52:21.189Z,86.80
2018-02-18T05:55:26.144Z,85.50
2018-02-18T05:58:29.826Z,85.50
2018-02-18T06:01:34.463Z,86.70
2018-02-18T06:04:38.556Z,85.70
2018-02-18T06:07:42.797Z,86.60
2018-02-18T06:10:46.398Z,86.50
2018-02-18T06:13:49.768Z,86.20
2018-02-18T06:16:53.134Z,86.10
2018-02-18T06:19:56.502Z,86.60
2018-02-18T06:23:00.227Z,86.70
2018-02-18T06:26:03.616Z,86.20
2018-02-18T06:29:07.148Z,86.00
2018-02-18T06:32:10.748Z,85.80
2018-02-18T06:35:14.156Z,85.60
2018-02-18T06:38:18.371Z,86.60
2018-02-18T06:41:21.756Z,86.60
2018-02-18T06:44:25.284Z,85.30
2018-02-18T06:47:28.690Z,84.80
2018-02-18T06:50:32.066Z,84.90
2018-02-18T06:53:36.230Z,85.60
2018-02-18T06:56:42.563Z,84.00
2018-02-18T06:59:46.543Z,84.70
2018-02-18T07:02:50.983Z,84.70
2018-02-18T07:05:54.473Z,85.10
2018-02-18T07:08:57.910Z,84.90
2018-02-18T07:12:01.960Z,85.10
2018-02-18T07:15:05.348Z,85.00
2018-02-18T07:18:09.531Z,84.30
2018-02-18T07:21:12.992Z,84.10
2018-02-18T07:24:16.348Z,83.70
2018-02-18T07:27:19.808Z,84.70
2018-02-18T07:30:23.248Z,83.60
2018-02-18T07:33:27.394Z,84.60
2018-02-18T07:36:31.113Z,84.50
2018-02-18T07:39:34.488Z,83.10
2018-02-18T07:42:38.656Z,82.70
2018-02-18T07:45:42.259Z,82.60
2018-02-18T07:48:45.787Z,83.10
2018-02-18T07:51:49.195Z,83.10
2018-02-18T07:54:52.655Z,82.70
2018-02-18T07:57:56.952Z,82.30
2018-02-18T08:01:01.172Z,81.50
2018-02-18T08:04:04.841Z,82.50
2018-02-18T08:07:08.494Z,82.50
2018-02-18T08:10:12.031Z,81.80
2018-02-18T08:13:15.573Z,82.00
2018-02-18T08:16:19.811Z,80.80
2018-02-18T08:19:23.175Z,80.70
2018-02-18T08:22:27.136Z,80.50
2018-02-18T08:25:30.656Z,81.40
2018-02-18T08:28:34.098Z,80.70
2018-02-18T08:31:37.862Z,80.60
2018-02-18T08:34:42.112Z,81.30
2018-02-18T08:37:45.565Z,80.50
2018-02-18T08:40:49.912Z,78.20
2018-02-18T08:43:53.490Z,78.10
2018-02-18T08:46:56.986Z,77.10
2018-02-18T08:50:00.495Z,78.40
2018-02-18T08:53:04.072Z,78.30
2018-02-18T08:56:07.493Z,79.30
2018-02-18T08:59:11.005Z,76.60
2018-02-18T09:02:14.448Z,77.30
2018-02-18T09:05:18.571Z,72.00
2018-02-18T09:08:22.762Z,70.00
2018-02-18T09:11:26.918Z,68.90
2018-02-18T09:14:30.345Z,68.80
2018-02-18T09:17:34.086Z,69.70
2018-02-18T09:20:38.524Z,67.00
2018-02-18T09:23:41.946Z,67.00
2018-02-18T09:26:45.387Z,67.20
2018-02-18T09:29:48.806Z,67.00
2018-02-18T09:32:52.305Z,68.20
2018-02-18T09:35:56.540Z,68.50
2018-02-18T09:39:00.749Z,68.30
2018-02-18T09:42:04.348Z,68.30
2018-02-18T09:45:08.519Z,65.80
2018-02-18T09:48:12.636Z,65.80
2018-02-18T09:51:16.396Z,65.00
2018-02-18T09:54:19.794Z,64.60
2018-02-18T09:57:23.394Z,64.00
2018-02-18T10:00:27.664Z,65.00
2018-02-18T10:03:33.620Z,63.70
2018-02-18T10:06:38.708Z,64.70
2018-02-18T10:09:42.928Z,65.20
2018-02-18T10:12:46.376Z,65.20
2018-02-18T10:15:49.827Z,63.60
2018-02-18T10:18:54.862Z,64.20
2018-02-18T10:21:58.295Z,64.20
2018-02-18T10:25:02.279Z,64.70
2018-02-18T10:28:07.355Z,61.80
2018-02-18T10:31:10.840Z,61.60
2018-02-18T10:34:15.028Z,62.30
2018-02-18T10:37:18.476Z,61.90
2018-02-18T10:40:21.936Z,60.70
2018-02-18T10:43:26.273Z,64.50
2018-02-18T10:46:29.709Z,64.40
2018-02-18T10:49:33.129Z,64.30
2018-02-18T10:52:37.411Z,62.60
2018-02-18T10:55:42.844Z,61.20
2018-02-18T10:58:46.242Z,61.80
2018-02-18T11:01:49.693Z,58.60
2018-02-18T11:04:53.413Z,57.60
2018-02-18T11:07:56.813Z,59.60
2018-02-18T11:11:00.226Z,57.40
2018-02-18T11:14:04.557Z,57.30
2018-02-18T11:17:08.734Z,57.40
2018-02-18T11:20:12.845Z,57.30
2018-02-18T11:23:17.438Z,55.20
2018-02-18T11:26:21.178Z,55.20
2018-02-18T11:29:24.534Z,51.60
2018-02-18T11:32:27.885Z,51.60
2018-02-18T11:35:31.247Z,52.30
2018-02-18T11:38:34.735Z,51.90
2018-02-18T11:41:38.235Z,53.80
2018-02-18T11:44:43.367Z,53.50
2018-02-18T11:47:46.839Z,53.40
2018-02-18T11:50:51.168Z,54.40
2018-02-18T11:53:54.780Z,54.40
2018-02-18T11:56:59.032Z,54.10
2018-02-18T12:00:02.783Z,54.10
2018-02-18T12:03:06.272Z,53.80
2018-02-18T12:06:09.873Z,54.10
2018-02-18T12:09:13.479Z,55.10
2018-02-18T12:12:16.972Z,52.30
2018-02-18T12:15:20.460Z,52.80
2018-02-18T12:18:25.324Z,53.80
2018-02-18T12:21:29.897Z,53.80
2018-02-18T12:24:33.446Z,54.80
2018-02-18T12:27:38.826Z,54.50
2018-02-18T12:30:42.356Z,54.10
2018-02-18T12:33:45.899Z,53.30
2018-02-18T12:36:50.160Z,54.20
2018-02-18T12:39:54.494Z,55.80
2018-02-18T12:42:58.846Z,53.50
2018-02-18T12:46:02.259Z,53.50
2018-02-18T12:49:05.620Z,53.90
2018-02-18T12:52:09.884Z,54.30
2018-02-18T12:55:13.512Z,54.30
2018-02-18T12:58:16.844Z,55.20
2018-02-18T13:01:20.934Z,55.60
2018-02-18T13:04:24.976Z,55.30
2018-02-18T13:07:28.236Z,55.20
2018-02-18T13:10:31.500Z,56.30
2018-02-18T13:13:34.751Z,54.60
2018-02-18T13:16:38.776Z,52.30
2018-02-18T13:19:42.826Z,53.10
2018-02-18T13:22:46.093Z,53.10
2018-02-18T13:25:50.149Z,53.20
2018-02-18T13:28:53.693Z,53.20
2018-02-18T13:31:57.759Z,52.80
2018-02-18T13:35:01.008Z,52.70
2018-02-18T13:38:04.309Z,53.40
2018-02-18T13:41:08.359Z,54.60
2018-02-18T13:44:11.622Z,54.60
2018-02-18T13:47:15.682Z,54.50
2018-02-18T13:50:18.958Z,54.50
2018-02-18T13:53:23.009Z,54.30
2018-02-18T13:56:26.633Z,54.30
2018-02-18T13:59:29.899Z,54.60
2018-02-18T14:02:33.178Z,54.50
2018-02-18T14:05:36.467Z,53.30
2018-02-18T14:08:40.479Z,53.60
2018-02-18T14:11:43.738Z,53.50
2018-02-18T14:14:46.981Z,53.80
2018-02-18T14:17:50.244Z,54.50
2018-02-18T14:20:53.496Z,55.00
2018-02-18T14:23:56.770Z,54.40
2018-02-18T14:27:00.058Z,54.30
2018-02-18T14:30:03.623Z,54.80
2018-02-18T14:33:06.867Z,54.60
2018-02-18T14:36:10.159Z,54.40
2018-02-18T14:39:13.464Z,54.50
2018-02-18T14:42:28.656Z,53.90
2018-02-18T14:45:43.909Z,53.80
2018-02-18T14:48:59.122Z,54.30
2018-02-18T14:52:14.267Z,54.80
2018-02-18T14:55:29.464Z,55.20
2018-02-18T14:58:32.889Z,55.40
2018-02-18T15:01:36.266Z,55.70
2018-02-18T15:04:39.536Z,56.60
2018-02-18T15:07:42.801Z,56.30
2018-02-18T15:10:46.839Z,56.70
2018-02-18T15:13:50.122Z,56.50
2018-02-18T15:16:53.445Z,56.50
2018-02-18T15:19:56.688Z,56.80
2018-02-18T15:23:00.759Z,57.70
2018-02-18T15:26:04.400Z,57.60
2018-02-18T15:29:07.654Z,58.20
2018-02-18T15:32:10.952Z,57.60
2018-02-18T15:35:14.267Z,58.00
2018-02-18T15:38:17.599Z,58.50
2018-02-18T15:41:20.933Z,58.50
2018-02-18T15:44:24.189Z,58.60
2018-02-18T15:47:27.746Z,58.70
2018-02-18T15:50:31.101Z,58.60
2018-02-18T15:53:35.226Z,59.70
2018-02-18T15:56:38.668Z,59.60
2018-02-18T15:59:42.265Z,60.10
2018-02-18T16:02:45.549Z,60.60
2018-02-18T16:05:48.871Z,59.90
2018-02-18T16:08:52.104Z,60.50
2018-02-18T16:11:56.155Z,61.10
2018-02-18T16:15:00.233Z,61.00
2018-02-18T16:18:03.563Z,60.90
2018-02-18T16:21:06.854Z,61.30
2018-02-18T16:24:10.177Z,61.40
2018-02-18T16:27:13.484Z,61.40
2018-02-18T16:30:16.752Z,61.60
2018-02-18T16:33:20.046Z,62.30
2018-02-18T16:36:23.336Z,62.70
2018-02-18T16:39:27.378Z,64.00
2018-02-18T16:42:30.656Z,63.90
2018-02-18T16:45:33.965Z,63.90
2018-02-18T16:48:37.708Z,64.80
2018-02-18T16:51:41.738Z,67.10
2018-02-18T16:54:45.047Z,67.10
2018-02-18T16:57:48.333Z,67.20
2018-02-18T17:00:52.376Z,68.60
2018-02-18T17:03:56.399Z,68.90
2018-02-18T17:06:59.706Z,68.90
2018-02-18T17:10:02.951Z,69.20
2018-02-18T17:13:06.280Z,69.60
2018-02-18T17:16:09.950Z,69.60
2018-02-18T17:19:13.979Z,70.20
2018-02-18T17:22:17.283Z,70.20
2018-02-18T17:25:20.560Z,70.90
2018-02-18T17:28:23.810Z,71.10
2018-02-18T17:31:28.447Z,71.90
2018-02-18T17:34:31.740Z,71.70
2018-02-18T17:37:34.990Z,70.90
2018-02-18T17:40:38.352Z,70.80
2018-02-18T17:43:41.749Z,71.50
2018-02-18T17:46:45.065Z,72.10
2018-02-18T17:49:48.329Z,72.60
2018-02-18T17:52:51.616Z,73.80
2018-02-18T17:55:54.853Z,73.70
2018-02-18T17:58:58.923Z,73.60
2018-02-18T18:02:02.166Z,73.50
2018-02-18T18:05:05.443Z,73.80
2018-02-18T18:08:08.980Z,73.20
2018-02-18T18:11:12.422Z,75.10
2018-02-18T18:14:16.503Z,75.00
2018-02-18T18:17:20.474Z,75.60
2018-02-18T18:20:23.733Z,76.00
2018-02-18T18:23:27.042Z,76.60
2018-02-18T18:26:31.141Z,77.60
2018-02-18T18:29:34.384Z,77.60
2018-02-18T18:32:38.736Z,77.10
2018-02-18T18:35:43.145Z,77.70
2018-02-18T18:38:47.325Z,77.70
2018-02-18T18:41:50.688Z,77.60
2018-02-18T18:44:53.986Z,77.60
2018-02-18T18:47:57.370Z,78.40
2018-02-18T18:51:00.698Z,78.10
2018-02-18T18:54:04.055Z,78.70
2018-02-18T18:57:08.493Z,79.90
2018-02-18T19:00:12.570Z,77.90
2018-02-18T19:03:16.918Z,77.60
2018-02-18T19:06:20.211Z,77.50
2018-02-18T19:09:23.567Z,77.70
2018-02-18T19:12:26.917Z,78.40
2018-02-18T19:15:31.001Z,79.50
2018-02-18T19:18:35.114Z,79.10
2018-02-18T19:21:38.539Z,79.00
2018-02-18T19:24:41.984Z,78.70
2018-02-18T19:27:46.187Z,79.80
2018-02-18T19:30:50.309Z,80.00
2018-02-18T19:33:54.608Z,80.00
2018-02-18T19:36:57.952Z,80.00
2018-02-18T19:40:01.274Z,80.60
2018-02-18T19:43:04.558Z,80.10
2018-02-18T19:46:08.865Z,80.80
2018-02-18T19:49:13.126Z,80.30
2018-02-18T19:52:17.884Z,80.50
2018-02-18T19:55:22.014Z,81.10
2018-02-18T19:58:25.390Z,81.00
2018-02-18T20:01:28.813Z,81.50
2018-02-18T20:07:42.699Z,80.70
2018-02-18T20:10:46.812Z,79.50
2018-02-18T20:13:50.110Z,79.40
2018-02-18T20:16:53.480Z,81.30
2018-02-18T20:19:56.764Z,79.30
2018-02-18T20:23:00.063Z,79.10
2018-02-18T20:26:03.440Z,79.60
2018-02-18T20:29:07.829Z,79.60
2018-02-18T20:32:11.173Z,79.50
2018-02-18T20:35:14.836Z,80.20
2018-02-18T20:38:18.915Z,81.30
2018-02-18T20:41:22.250Z,81.20
2018-02-18T20:44:25.598Z,80.60
2018-02-18T20:47:28.881Z,80.00
2018-02-18T20:50:33.174Z,81.80
2018-02-18T20:53:37.351Z,81.10
2018-02-18T20:56:40.724Z,81.00
2018-02-18T20:59:43.992Z,81.50
2018-02-18T21:02:48.124Z,82.70
2018-02-18T21:05:52.180Z,83.50
2018-02-18T21:08:55.493Z,83.50
2018-02-18T21:11:59.581Z,82.60
2018-02-18T21:15:02.883Z,82.50
2018-02-18T21:18:06.552Z,82.90
2018-02-18T21:21:10.597Z,83.00
2018-02-18T21:24:13.874Z,82.90
2018-02-18T21:27:17.353Z,82.50
2018-02-18T21:30:20.707Z,82.80
2018-02-18T21:33:24.004Z,82.90
2018-02-18T21:36:27.278Z,82.70
2018-02-18T21:39:30.531Z,83.00
2018-02-18T21:42:34.585Z,83.10
2018-02-18T21:45:37.959Z,83.10
2018-02-18T21:48:42.020Z,83.20
2018-02-18T21:51:45.664Z,83.10
2018-02-18T21:54:49.707Z,83.10
2018-02-18T21:57:53.100Z,83.10
2018-02-18T22:00:56.441Z,82.80
2018-02-18T22:03:59.759Z,83.80
2018-02-18T22:07:02.991Z,83.30
2018-02-18T22:10:06.312Z,83.50
2018-02-18T22:13:09.608Z,83.10
2018-02-18T22:16:12.913Z,83.20
2018-02-18T22:19:16.549Z,83.20
2018-02-18T22:22:19.827Z,83.30
2018-02-18T22:25:23.180Z,83.50
2018-02-18T22:28:27.255Z,82.60
2018-02-18T22:31:30.618Z,82.60
2018-02-18T22:34:33.860Z,82.70
2018-02-18T22:37:38.036Z,83.40
2018-02-18T22:40:41.305Z,83.40
2018-02-18T22:43:44.667Z,83.40
2018-02-18T22:46:48.267Z,83.50
2018-02-18T22:49:51.549Z,83.30
2018-02-18T22:52:54.826Z,83.70
2018-02-18T22:55:58.090Z,83.90
2018-02-18T22:59:02.136Z,83.60
2018-02-18T23:02:05.366Z,83.60
2018-02-18T23:05:15.159Z,83.00
2018-02-18T23:08:18.418Z,83.20
2018-02-18T23:11:21.707Z,83.40
2018-02-18T23:14:24.987Z,84.60
2018-02-18T23:17:28.274Z,83.70
2018-02-18T23:20:43.337Z,83.60
2018-02-18T23:23:46.611Z,84.30
2018-02-18T23:26:49.933Z,83.40
2018-02-18T23:29:53.214Z,83.80
2018-02-18T23:32:56.521Z,83.70
2018-02-18T23:35:59.776Z,83.10
2018-02-18T23:39:03.854Z,84.10
2018-02-18T23:42:07.461Z,84.00
2018-02-18T23:45:10.976Z,84.00
2018-02-18T23:48:14.254Z,84.00
2018-02-18T23:51:18.334Z,84.30
2018-02-18T23:54:21.862Z,83.50
2018-02-18T23:57:25.097Z,83.40
